sensor_id;sensor_type;location;lat;lon;timestamp;temperature;humidity
61153;DHT22;47030;50.732;4.286;2022-09-21T00:00:04;8.50;99.90
61153;DHT22;47030;50.732;4.286;2022-09-21T00:02:30;8.50;99.90
61153;DHT22;47030;50.732;4.286;2022-09-21T00:04:56;8.40;99.90
61153;DHT22;47030;50.732;4.286;2022-09-21T00:07:22;8.40;99.90
61153;DHT22;47030;50.732;4.286;2022-09-21T00:09:48;8.30;99.90
61153;DHT22;47030;50.732;4.286;2022-09-21T00:12:13;8.40;99.90
61153;DHT22;47030;50.732;4.286;2022-09-21T00:14:40;8.40;99.90
61153;DHT22;47030;50.732;4.286;2022-09-21T00:17:06;8.30;99.90
61153;DHT22;47030;50.732;4.286;2022-09-21T00:19:34;8.30;99.90
61153;DHT22;47030;50.732;4.286;2022-09-21T00:22:00;8.30;99.90
61153;DHT22;47030;50.732;4.286;2022-09-21T00:24:26;8.20;99.90
61153;DHT22;47030;50.732;4.286;2022-09-21T00:26:52;8.20;99.90
61153;DHT22;47030;50.732;4.286;2022-09-21T00:29:18;8.20;99.90
61153;DHT22;47030;50.732;4.286;2022-09-21T00:31:44;8.20;99.90
61153;DHT22;47030;50.732;4.286;2022-09-21T00:34:09;8.20;99.90
61153;DHT22;47030;50.732;4.286;2022-09-21T00:36:39;8.20;99.90
61153;DHT22;47030;50.732;4.286;2022-09-21T00:39:05;8.20;99.90
61153;DHT22;47030;50.732;4.286;2022-09-21T00:41:32;8.10;99.90
61153;DHT22;47030;50.732;4.286;2022-09-21T00:44:28;8.10;99.90
61153;DHT22;47030;50.732;4.286;2022-09-21T00:46:57;8.10;99.90
61153;DHT22;47030;50.732;4.286;2022-09-21T00:49:26;8.10;99.90
61153;DHT22;47030;50.732;4.286;2022-09-21T00:51:53;8.10;99.90
61153;DHT22;47030;50.732;4.286;2022-09-21T00:54:26;8.10;99.90
61153;DHT22;47030;50.732;4.286;2022-09-21T00:56:54;8.10;99.90
61153;DHT22;47030;50.732;4.286;2022-09-21T00:59:20;8.00;99.90
61153;DHT22;47030;50.732;4.286;2022-09-21T01:01:47;8.00;99.90
61153;DHT22;47030;50.732;4.286;2022-09-21T01:04:14;8.00;99.90
61153;DHT22;47030;50.732;4.286;2022-09-21T01:06:43;8.00;99.90
61153;DHT22;47030;50.732;4.286;2022-09-21T01:09:09;8.00;99.90
61153;DHT22;47030;50.732;4.286;2022-09-21T01:14:51;7.90;99.90
61153;DHT22;47030;50.732;4.286;2022-09-21T01:23:01;8.00;99.90
61153;DHT22;47030;50.732;4.286;2022-09-21T01:26:08;8.00;99.90
61153;DHT22;47030;50.732;4.286;2022-09-21T01:31:32;8.00;99.90
61153;DHT22;47030;50.732;4.286;2022-09-21T01:34:01;7.90;99.90
61153;DHT22;47030;50.732;4.286;2022-09-21T01:36:30;7.80;99.90
61153;DHT22;47030;50.732;4.286;2022-09-21T01:39:08;7.80;99.90
61153;DHT22;47030;50.732;4.286;2022-09-21T01:41:36;7.90;99.90
61153;DHT22;47030;50.732;4.286;2022-09-21T01:44:09;7.80;99.90
61153;DHT22;47030;50.732;4.286;2022-09-21T01:46:37;7.90;99.90
61153;DHT22;47030;50.732;4.286;2022-09-21T01:49:20;7.90;99.90
61153;DHT22;47030;50.732;4.286;2022-09-21T01:51:50;7.90;99.90
61153;DHT22;47030;50.732;4.286;2022-09-21T01:54:22;7.80;99.90
61153;DHT22;47030;50.732;4.286;2022-09-21T01:57:15;7.80;99.90
61153;DHT22;47030;50.732;4.286;2022-09-21T01:59:55;7.80;99.90
61153;DHT22;47030;50.732;4.286;2022-09-21T02:02:36;7.70;99.90
61153;DHT22;47030;50.732;4.286;2022-09-21T02:05:04;7.70;99.90
61153;DHT22;47030;50.732;4.286;2022-09-21T02:07:31;7.70;99.90
61153;DHT22;47030;50.732;4.286;2022-09-21T02:09:59;7.70;99.90
61153;DHT22;47030;50.732;4.286;2022-09-21T02:12:26;7.70;99.90
61153;DHT22;47030;50.732;4.286;2022-09-21T02:14:52;7.70;99.90
61153;DHT22;47030;50.732;4.286;2022-09-21T02:20:25;7.70;99.90
61153;DHT22;47030;50.732;4.286;2022-09-21T02:23:06;7.60;99.90
61153;DHT22;47030;50.732;4.286;2022-09-21T02:31:03;7.50;99.90
61153;DHT22;47030;50.732;4.286;2022-09-21T02:33:39;7.40;99.90
61153;DHT22;47030;50.732;4.286;2022-09-21T02:36:20;7.40;99.90
61153;DHT22;47030;50.732;4.286;2022-09-21T02:39:01;7.50;99.90
61153;DHT22;47030;50.732;4.286;2022-09-21T02:41:36;7.50;99.90
61153;DHT22;47030;50.732;4.286;2022-09-21T02:44:10;7.50;99.90
61153;DHT22;47030;50.732;4.286;2022-09-21T02:46:42;7.40;99.90
61153;DHT22;47030;50.732;4.286;2022-09-21T02:49:17;7.40;99.90
61153;DHT22;47030;50.732;4.286;2022-09-21T02:51:46;7.40;99.90
61153;DHT22;47030;50.732;4.286;2022-09-21T02:54:18;7.30;99.90
61153;DHT22;47030;50.732;4.286;2022-09-21T02:56:47;7.30;99.90
61153;DHT22;47030;50.732;4.286;2022-09-21T02:59:14;7.30;99.90
61153;DHT22;47030;50.732;4.286;2022-09-21T03:01:41;7.30;99.90
61153;DHT22;47030;50.732;4.286;2022-09-21T03:04:08;7.80;99.90
61153;DHT22;47030;50.732;4.286;2022-09-21T03:06:34;7.30;99.90
61153;DHT22;47030;50.732;4.286;2022-09-21T03:09:00;7.30;99.90
61153;DHT22;47030;50.732;4.286;2022-09-21T03:11:25;7.30;99.90
61153;DHT22;47030;50.732;4.286;2022-09-21T03:13:51;7.30;99.90
61153;DHT22;47030;50.732;4.286;2022-09-21T03:16:17;7.30;99.90
61153;DHT22;47030;50.732;4.286;2022-09-21T03:18:43;7.40;99.90
61153;DHT22;47030;50.732;4.286;2022-09-21T03:21:10;7.30;99.90
61153;DHT22;47030;50.732;4.286;2022-09-21T03:23:36;7.30;99.90
61153;DHT22;47030;50.732;4.286;2022-09-21T03:26:02;7.20;99.90
61153;DHT22;47030;50.732;4.286;2022-09-21T03:28:28;7.10;99.90
61153;DHT22;47030;50.732;4.286;2022-09-21T03:30:54;7.10;99.90
61153;DHT22;47030;50.732;4.286;2022-09-21T03:33:20;7.30;99.90
61153;DHT22;47030;50.732;4.286;2022-09-21T03:35:49;7.10;99.90
61153;DHT22;47030;50.732;4.286;2022-09-21T03:38:16;7.20;99.90
61153;DHT22;47030;50.732;4.286;2022-09-21T03:40:46;7.10;99.90
61153;DHT22;47030;50.732;4.286;2022-09-21T03:43:11;7.10;99.90
61153;DHT22;47030;50.732;4.286;2022-09-21T03:45:37;7.10;99.90
61153;DHT22;47030;50.732;4.286;2022-09-21T03:48:05;7.10;99.90
61153;DHT22;47030;50.732;4.286;2022-09-21T03:50:31;7.10;99.90
61153;DHT22;47030;50.732;4.286;2022-09-21T03:52:57;7.10;99.90
61153;DHT22;47030;50.732;4.286;2022-09-21T03:55:23;7.20;99.90
61153;DHT22;47030;50.732;4.286;2022-09-21T03:57:49;7.20;99.90
61153;DHT22;47030;50.732;4.286;2022-09-21T04:00:15;7.40;99.90
61153;DHT22;47030;50.732;4.286;2022-09-21T04:02:41;7.20;99.90
61153;DHT22;47030;50.732;4.286;2022-09-21T04:05:09;7.30;99.90
61153;DHT22;47030;50.732;4.286;2022-09-21T04:07:36;7.00;99.90
61153;DHT22;47030;50.732;4.286;2022-09-21T04:10:04;7.00;99.90
61153;DHT22;47030;50.732;4.286;2022-09-21T04:12:31;7.00;99.90
61153;DHT22;47030;50.732;4.286;2022-09-21T04:15:01;7.00;99.90
61153;DHT22;47030;50.732;4.286;2022-09-21T04:17:28;7.00;99.90
61153;DHT22;47030;50.732;4.286;2022-09-21T04:19:55;6.90;99.90
61153;DHT22;47030;50.732;4.286;2022-09-21T04:22:21;6.80;99.90
61153;DHT22;47030;50.732;4.286;2022-09-21T04:24:49;7.10;99.90
61153;DHT22;47030;50.732;4.286;2022-09-21T04:27:15;6.90;99.90
61153;DHT22;47030;50.732;4.286;2022-09-21T04:29:40;6.90;99.90
61153;DHT22;47030;50.732;4.286;2022-09-21T04:32:06;7.10;99.90
61153;DHT22;47030;50.732;4.286;2022-09-21T04:34:32;6.80;99.90
61153;DHT22;47030;50.732;4.286;2022-09-21T04:36:58;6.90;99.90
61153;DHT22;47030;50.732;4.286;2022-09-21T04:39:24;6.90;99.90
61153;DHT22;47030;50.732;4.286;2022-09-21T04:41:50;6.90;99.90
61153;DHT22;47030;50.732;4.286;2022-09-21T04:44:16;7.00;99.90
61153;DHT22;47030;50.732;4.286;2022-09-21T04:46:45;7.30;99.90
61153;DHT22;47030;50.732;4.286;2022-09-21T04:49:11;7.00;99.90
61153;DHT22;47030;50.732;4.286;2022-09-21T04:51:36;6.90;99.90
61153;DHT22;47030;50.732;4.286;2022-09-21T04:54:02;6.90;99.90
61153;DHT22;47030;50.732;4.286;2022-09-21T04:56:28;6.90;99.90
61153;DHT22;47030;50.732;4.286;2022-09-21T04:58:55;7.00;99.90
61153;DHT22;47030;50.732;4.286;2022-09-21T05:01:20;6.90;99.90
61153;DHT22;47030;50.732;4.286;2022-09-21T05:03:46;6.80;99.90
61153;DHT22;47030;50.732;4.286;2022-09-21T05:06:12;6.80;99.90
61153;DHT22;47030;50.732;4.286;2022-09-21T05:08:38;6.80;99.90
61153;DHT22;47030;50.732;4.286;2022-09-21T05:11:23;6.80;99.90
61153;DHT22;47030;50.732;4.286;2022-09-21T05:13:50;7.10;99.90
61153;DHT22;47030;50.732;4.286;2022-09-21T05:16:17;6.90;99.90
61153;DHT22;47030;50.732;4.286;2022-09-21T05:18:44;7.00;99.90
61153;DHT22;47030;50.732;4.286;2022-09-21T05:21:11;7.00;99.90
61153;DHT22;47030;50.732;4.286;2022-09-21T05:23:37;7.10;99.90
61153;DHT22;47030;50.732;4.286;2022-09-21T05:26:04;7.10;99.90
61153;DHT22;47030;50.732;4.286;2022-09-21T05:28:30;7.20;99.90
61153;DHT22;47030;50.732;4.286;2022-09-21T05:33:57;7.30;99.90
61153;DHT22;47030;50.732;4.286;2022-09-21T05:36:41;7.30;99.90
61153;DHT22;47030;50.732;4.286;2022-09-21T05:39:09;7.30;99.90
61153;DHT22;47030;50.732;4.286;2022-09-21T05:41:36;7.40;99.90
61153;DHT22;47030;50.732;4.286;2022-09-21T05:44:02;7.50;99.90
61153;DHT22;47030;50.732;4.286;2022-09-21T05:46:44;7.60;99.90
61153;DHT22;47030;50.732;4.286;2022-09-21T05:49:25;7.70;99.90
61153;DHT22;47030;50.732;4.286;2022-09-21T05:54:53;7.90;99.90
61153;DHT22;47030;50.732;4.286;2022-09-21T06:00:20;8.20;99.90
61153;DHT22;47030;50.732;4.286;2022-09-21T06:05:13;8.30;99.90
61153;DHT22;47030;50.732;4.286;2022-09-21T06:07:40;8.40;99.90
61153;DHT22;47030;50.732;4.286;2022-09-21T06:10:13;8.60;99.90
61153;DHT22;47030;50.732;4.286;2022-09-21T06:12:39;8.70;99.90
61153;DHT22;47030;50.732;4.286;2022-09-21T06:15:06;8.70;99.90
61153;DHT22;47030;50.732;4.286;2022-09-21T06:17:32;8.90;99.90
61153;DHT22;47030;50.732;4.286;2022-09-21T06:19:58;8.90;99.90
61153;DHT22;47030;50.732;4.286;2022-09-21T06:22:24;9.10;99.90
61153;DHT22;47030;50.732;4.286;2022-09-21T06:24:49;9.20;99.90
61153;DHT22;47030;50.732;4.286;2022-09-21T06:27:15;9.40;99.90
61153;DHT22;47030;50.732;4.286;2022-09-21T06:29:41;9.60;99.90
61153;DHT22;47030;50.732;4.286;2022-09-21T06:32:06;9.60;99.90
61153;DHT22;47030;50.732;4.286;2022-09-21T06:34:32;9.70;99.90
61153;DHT22;47030;50.732;4.286;2022-09-21T06:36:58;9.80;99.90
61153;DHT22;47030;50.732;4.286;2022-09-21T06:39:24;9.90;99.90
61153;DHT22;47030;50.732;4.286;2022-09-21T06:41:51;10.10;99.90
61153;DHT22;47030;50.732;4.286;2022-09-21T06:44:16;10.40;99.90
61153;DHT22;47030;50.732;4.286;2022-09-21T06:46:42;10.70;99.90
61153;DHT22;47030;50.732;4.286;2022-09-21T06:49:08;11.20;99.80
61153;DHT22;47030;50.732;4.286;2022-09-21T06:51:33;11.80;98.90
61153;DHT22;47030;50.732;4.286;2022-09-21T06:54:00;12.70;97.80
61153;DHT22;47030;50.732;4.286;2022-09-21T06:56:26;13.40;95.50
61153;DHT22;47030;50.732;4.286;2022-09-21T06:58:52;13.60;95.00
61153;DHT22;47030;50.732;4.286;2022-09-21T07:01:19;13.70;94.40
61153;DHT22;47030;50.732;4.286;2022-09-21T07:03:48;15.20;93.00
61153;DHT22;47030;50.732;4.286;2022-09-21T07:06:15;17.70;86.60
61153;DHT22;47030;50.732;4.286;2022-09-21T07:08:42;20.00;78.50
61153;DHT22;47030;50.732;4.286;2022-09-21T07:11:09;22.00;70.30
61153;DHT22;47030;50.732;4.286;2022-09-21T07:13:35;23.70;63.80
61153;DHT22;47030;50.732;4.286;2022-09-21T07:16:05;25.10;58.70
61153;DHT22;47030;50.732;4.286;2022-09-21T07:18:38;25.90;54.50
61153;DHT22;47030;50.732;4.286;2022-09-21T07:21:05;26.50;52.10
61153;DHT22;47030;50.732;4.286;2022-09-21T07:23:32;27.10;51.10
61153;DHT22;47030;50.732;4.286;2022-09-21T07:26:05;26.90;49.60
61153;DHT22;47030;50.732;4.286;2022-09-21T07:28:33;26.10;51.10
61153;DHT22;47030;50.732;4.286;2022-09-21T07:31:08;25.10;53.30
61153;DHT22;47030;50.732;4.286;2022-09-21T07:33:35;23.90;55.20
61153;DHT22;47030;50.732;4.286;2022-09-21T07:36:01;22.90;58.20
61153;DHT22;47030;50.732;4.286;2022-09-21T07:38:28;23.00;58.00
61153;DHT22;47030;50.732;4.286;2022-09-21T07:40:53;23.90;55.90
61153;DHT22;47030;50.732;4.286;2022-09-21T07:43:19;24.90;53.90
61153;DHT22;47030;50.732;4.286;2022-09-21T07:45:54;25.10;52.80
61153;DHT22;47030;50.732;4.286;2022-09-21T07:48:20;25.30;52.30
61153;DHT22;47030;50.732;4.286;2022-09-21T07:50:47;25.20;53.00
61153;DHT22;47030;50.732;4.286;2022-09-21T07:53:14;26.00;52.60
61153;DHT22;47030;50.732;4.286;2022-09-21T07:55:41;27.40;50.60
61153;DHT22;47030;50.732;4.286;2022-09-21T07:58:07;28.80;48.40
61153;DHT22;47030;50.732;4.286;2022-09-21T08:00:51;30.10;45.30
61153;DHT22;47030;50.732;4.286;2022-09-21T08:03:17;31.40;42.40
61153;DHT22;47030;50.732;4.286;2022-09-21T08:05:43;31.50;42.60
61153;DHT22;47030;50.732;4.286;2022-09-21T08:08:08;32.20;41.40
61153;DHT22;47030;50.732;4.286;2022-09-21T08:10:34;32.50;41.10
61153;DHT22;47030;50.732;4.286;2022-09-21T08:13:00;32.70;40.50
61153;DHT22;47030;50.732;4.286;2022-09-21T08:15:26;32.30;41.30
61153;DHT22;47030;50.732;4.286;2022-09-21T08:17:53;31.90;41.30
61153;DHT22;47030;50.732;4.286;2022-09-21T08:20:19;32.10;40.80
61153;DHT22;47030;50.732;4.286;2022-09-21T08:22:46;32.90;39.70
61153;DHT22;47030;50.732;4.286;2022-09-21T08:25:11;33.80;39.10
61153;DHT22;47030;50.732;4.286;2022-09-21T08:27:37;34.50;37.60
61153;DHT22;47030;50.732;4.286;2022-09-21T08:30:05;35.30;37.20
61153;DHT22;47030;50.732;4.286;2022-09-21T08:32:32;36.10;35.40
61153;DHT22;47030;50.732;4.286;2022-09-21T08:34:57;36.80;35.00
61153;DHT22;47030;50.732;4.286;2022-09-21T08:37:23;37.00;33.80
61153;DHT22;47030;50.732;4.286;2022-09-21T08:39:49;37.20;33.70
61153;DHT22;47030;50.732;4.286;2022-09-21T08:42:41;37.70;33.50
61153;DHT22;47030;50.732;4.286;2022-09-21T08:45:15;38.40;32.60
61153;DHT22;47030;50.732;4.286;2022-09-21T08:47:51;38.60;32.60
61153;DHT22;47030;50.732;4.286;2022-09-21T08:52:48;39.20;32.30
61153;DHT22;47030;50.732;4.286;2022-09-21T08:55:19;39.10;32.40
61153;DHT22;47030;50.732;4.286;2022-09-21T08:57:45;38.30;32.00
61153;DHT22;47030;50.732;4.286;2022-09-21T09:00:16;38.40;32.50
61153;DHT22;47030;50.732;4.286;2022-09-21T09:03:44;38.40;32.60
61153;DHT22;47030;50.732;4.286;2022-09-21T09:22:42;37.50;32.90
61153;DHT22;47030;50.732;4.286;2022-09-21T09:25:22;37.90;32.00
61153;DHT22;47030;50.732;4.286;2022-09-21T09:27:58;35.90;33.80
61153;DHT22;47030;50.732;4.286;2022-09-21T09:30:28;33.00;37.20
61153;DHT22;47030;50.732;4.286;2022-09-21T09:33:16;30.80;39.70
61153;DHT22;47030;50.732;4.286;2022-09-21T09:36:01;30.60;41.20
61153;DHT22;47030;50.732;4.286;2022-09-21T09:38:38;31.90;40.00
61153;DHT22;47030;50.732;4.286;2022-09-21T09:41:25;33.10;37.60
61153;DHT22;47030;50.732;4.286;2022-09-21T09:52:28;26.10;48.00
61153;DHT22;47030;50.732;4.286;2022-09-21T09:54:54;24.70;51.20
61153;DHT22;47030;50.732;4.286;2022-09-21T09:57:27;23.50;54.30
61153;DHT22;47030;50.732;4.286;2022-09-21T10:00:02;22.80;56.40
61153;DHT22;47030;50.732;4.286;2022-09-21T10:02:29;22.40;57.80
61153;DHT22;47030;50.732;4.286;2022-09-21T10:05:04;22.60;56.70
61153;DHT22;47030;50.732;4.286;2022-09-21T10:07:43;22.30;57.80
61153;DHT22;47030;50.732;4.286;2022-09-21T10:10:32;21.70;59.70
61153;DHT22;47030;50.732;4.286;2022-09-21T10:15:28;21.40;60.60
61153;DHT22;47030;50.732;4.286;2022-09-21T10:18:05;23.90;55.00
61153;DHT22;47030;50.732;4.286;2022-09-21T10:20:32;27.20;45.20
61153;DHT22;47030;50.732;4.286;2022-09-21T10:22:58;28.10;42.10
61153;DHT22;47030;50.732;4.286;2022-09-21T10:25:25;26.90;44.20
61153;DHT22;47030;50.732;4.286;2022-09-21T10:27:51;27.80;44.60
61153;DHT22;47030;50.732;4.286;2022-09-21T10:32:56;31.30;38.50
61153;DHT22;47030;50.732;4.286;2022-09-21T10:35:23;31.70;37.10
61153;DHT22;47030;50.732;4.286;2022-09-21T10:38:08;30.10;38.10
61153;DHT22;47030;50.732;4.286;2022-09-21T10:40:36;28.50;40.40
61153;DHT22;47030;50.732;4.286;2022-09-21T10:43:03;27.10;42.40
61153;DHT22;47030;50.732;4.286;2022-09-21T10:45:33;26.00;44.50
61153;DHT22;47030;50.732;4.286;2022-09-21T10:48:12;25.10;46.60
61153;DHT22;47030;50.732;4.286;2022-09-21T10:50:41;24.20;47.60
61153;DHT22;47030;50.732;4.286;2022-09-21T10:55:37;24.90;46.60
61153;DHT22;47030;50.732;4.286;2022-09-21T10:58:11;24.20;47.20
61153;DHT22;47030;50.732;4.286;2022-09-21T11:00:42;23.40;49.30
61153;DHT22;47030;50.732;4.286;2022-09-21T11:06:40;22.30;53.00
61153;DHT22;47030;50.732;4.286;2022-09-21T11:09:21;21.70;54.00
61153;DHT22;47030;50.732;4.286;2022-09-21T11:12:02;21.30;55.30
61153;DHT22;47030;50.732;4.286;2022-09-21T11:22:26;20.70;57.00
61153;DHT22;47030;50.732;4.286;2022-09-21T11:28:09;20.50;56.90
61153;DHT22;47030;50.732;4.286;2022-09-21T11:30:58;20.40;57.30
61153;DHT22;47030;50.732;4.286;2022-09-21T11:36:03;20.10;60.50
61153;DHT22;47030;50.732;4.286;2022-09-21T11:38:55;20.20;59.60
61153;DHT22;47030;50.732;4.286;2022-09-21T11:41:35;20.30;57.70
61153;DHT22;47030;50.732;4.286;2022-09-21T11:49:52;20.90;56.80
61153;DHT22;47030;50.732;4.286;2022-09-21T12:00:25;23.10;49.70
61153;DHT22;47030;50.732;4.286;2022-09-21T12:09:06;24.90;44.00
61153;DHT22;47030;50.732;4.286;2022-09-21T12:16:50;24.00;45.50
61153;DHT22;47030;50.732;4.286;2022-09-21T12:22:10;22.50;49.80
61153;DHT22;47030;50.732;4.286;2022-09-21T12:25:00;22.50;50.20
61153;DHT22;47030;50.732;4.286;2022-09-21T12:27:37;22.50;50.00
61153;DHT22;47030;50.732;4.286;2022-09-21T12:30:23;22.90;48.60
61153;DHT22;47030;50.732;4.286;2022-09-21T12:32:55;23.30;47.10
61153;DHT22;47030;50.732;4.286;2022-09-21T12:35:27;23.50;47.60
61153;DHT22;47030;50.732;4.286;2022-09-21T12:38:03;23.50;47.40
61153;DHT22;47030;50.732;4.286;2022-09-21T12:40:42;23.20;47.10
61153;DHT22;47030;50.732;4.286;2022-09-21T12:45:57;22.50;48.40
61153;DHT22;47030;50.732;4.286;2022-09-21T12:48:33;21.80;50.10
61153;DHT22;47030;50.732;4.286;2022-09-21T12:51:09;21.50;50.90
61153;DHT22;47030;50.732;4.286;2022-09-21T12:53:38;21.40;51.20
61153;DHT22;47030;50.732;4.286;2022-09-21T12:56:18;20.90;52.00
61153;DHT22;47030;50.732;4.286;2022-09-21T13:01:45;20.80;53.60
61153;DHT22;47030;50.732;4.286;2022-09-21T13:04:32;20.80;53.80
61153;DHT22;47030;50.732;4.286;2022-09-21T13:09:44;20.80;53.70
61153;DHT22;47030;50.732;4.286;2022-09-21T13:14:45;20.60;54.20
61153;DHT22;47030;50.732;4.286;2022-09-21T13:17:23;20.60;54.80
61153;DHT22;47030;50.732;4.286;2022-09-21T13:20:15;20.70;55.30
61153;DHT22;47030;50.732;4.286;2022-09-21T13:22:42;21.10;52.70
61153;DHT22;47030;50.732;4.286;2022-09-21T13:25:23;21.30;51.50
61153;DHT22;47030;50.732;4.286;2022-09-21T13:30:36;21.60;48.80
61153;DHT22;47030;50.732;4.286;2022-09-21T13:33:27;21.80;49.90
61153;DHT22;47030;50.732;4.286;2022-09-21T13:36:08;21.50;50.30
61153;DHT22;47030;50.732;4.286;2022-09-21T13:41:31;21.70;50.50
61153;DHT22;47030;50.732;4.286;2022-09-21T13:49:24;21.80;50.00
61153;DHT22;47030;50.732;4.286;2022-09-21T13:52:02;21.80;50.00
61153;DHT22;47030;50.732;4.286;2022-09-21T13:54:38;21.70;48.90
61153;DHT22;47030;50.732;4.286;2022-09-21T13:57:28;21.40;50.10
61153;DHT22;47030;50.732;4.286;2022-09-21T14:02:38;20.60;53.80
61153;DHT22;47030;50.732;4.286;2022-09-21T14:05:21;20.20;52.20
61153;DHT22;47030;50.732;4.286;2022-09-21T14:07:57;20.00;55.40
61153;DHT22;47030;50.732;4.286;2022-09-21T14:10:25;20.00;54.00
61153;DHT22;47030;50.732;4.286;2022-09-21T14:12:52;19.90;54.80
61153;DHT22;47030;50.732;4.286;2022-09-21T14:21:08;19.80;58.10
61153;DHT22;47030;50.732;4.286;2022-09-21T14:23:36;19.80;56.50
61153;DHT22;47030;50.732;4.286;2022-09-21T14:26:31;19.80;57.30
61153;DHT22;47030;50.732;4.286;2022-09-21T14:29:12;19.80;58.60
61153;DHT22;47030;50.732;4.286;2022-09-21T14:31:40;19.90;58.60
61153;DHT22;47030;50.732;4.286;2022-09-21T14:34:14;20.20;56.60
61153;DHT22;47030;50.732;4.286;2022-09-21T14:36:44;20.50;57.30
61153;DHT22;47030;50.732;4.286;2022-09-21T14:41:48;20.60;52.50
61153;DHT22;47030;50.732;4.286;2022-09-21T14:44:26;20.70;54.40
61153;DHT22;47030;50.732;4.286;2022-09-21T14:49:39;20.90;53.10
61153;DHT22;47030;50.732;4.286;2022-09-21T14:52:38;21.00;52.90
61153;DHT22;47030;50.732;4.286;2022-09-21T14:55:31;21.00;52.00
61153;DHT22;47030;50.732;4.286;2022-09-21T14:58:23;20.80;52.50
61153;DHT22;47030;50.732;4.286;2022-09-21T15:00:51;20.80;50.60
61153;DHT22;47030;50.732;4.286;2022-09-21T15:06:50;20.10;52.70
61153;DHT22;47030;50.732;4.286;2022-09-21T15:12:38;19.40;56.30
61153;DHT22;47030;50.732;4.286;2022-09-21T15:18:19;19.10;57.40
61153;DHT22;47030;50.732;4.286;2022-09-21T15:20:56;18.90;59.10
61153;DHT22;47030;50.732;4.286;2022-09-21T15:23:33;18.60;60.90
61153;DHT22;47030;50.732;4.286;2022-09-21T15:26:07;18.40;62.50
61153;DHT22;47030;50.732;4.286;2022-09-21T15:28:45;18.40;62.40
61153;DHT22;47030;50.732;4.286;2022-09-21T15:31:15;18.30;63.20
61153;DHT22;47030;50.732;4.286;2022-09-21T15:33:42;18.20;63.20
61153;DHT22;47030;50.732;4.286;2022-09-21T15:36:11;18.20;64.40
61153;DHT22;47030;50.732;4.286;2022-09-21T15:38:37;18.10;64.20
61153;DHT22;47030;50.732;4.286;2022-09-21T15:41:04;18.00;65.20
61153;DHT22;47030;50.732;4.286;2022-09-21T15:43:32;18.00;66.00
61153;DHT22;47030;50.732;4.286;2022-09-21T15:45:59;18.00;64.40
61153;DHT22;47030;50.732;4.286;2022-09-21T15:48:35;18.00;65.60
61153;DHT22;47030;50.732;4.286;2022-09-21T15:51:14;17.90;66.30
61153;DHT22;47030;50.732;4.286;2022-09-21T15:53:44;17.90;66.80
61153;DHT22;47030;50.732;4.286;2022-09-21T15:56:20;17.90;65.40
61153;DHT22;47030;50.732;4.286;2022-09-21T15:58:48;17.80;66.80
61153;DHT22;47030;50.732;4.286;2022-09-21T16:01:19;17.80;67.70
61153;DHT22;47030;50.732;4.286;2022-09-21T16:03:47;17.70;68.70
61153;DHT22;47030;50.732;4.286;2022-09-21T16:08:42;17.40;71.10
61153;DHT22;47030;50.732;4.286;2022-09-21T16:14:07;17.30;71.30
61153;DHT22;47030;50.732;4.286;2022-09-21T16:24:56;16.90;74.90
61153;DHT22;47030;50.732;4.286;2022-09-21T16:27:25;16.70;74.80
61153;DHT22;47030;50.732;4.286;2022-09-21T16:29:53;16.60;75.60
61153;DHT22;47030;50.732;4.286;2022-09-21T16:34:51;16.50;76.40
61153;DHT22;47030;50.732;4.286;2022-09-21T16:39:47;16.30;76.60
61153;DHT22;47030;50.732;4.286;2022-09-21T16:42:14;16.20;77.20
61153;DHT22;47030;50.732;4.286;2022-09-21T16:44:40;16.10;77.80
61153;DHT22;47030;50.732;4.286;2022-09-21T16:47:20;16.10;79.40
61153;DHT22;47030;50.732;4.286;2022-09-21T16:49:53;16.00;81.00
61153;DHT22;47030;50.732;4.286;2022-09-21T16:52:24;15.90;82.50
61153;DHT22;47030;50.732;4.286;2022-09-21T16:54:50;15.70;83.60
61153;DHT22;47030;50.732;4.286;2022-09-21T16:57:16;15.70;84.80
61153;DHT22;47030;50.732;4.286;2022-09-21T16:59:42;15.60;84.80
61153;DHT22;47030;50.732;4.286;2022-09-21T17:02:10;15.50;85.20
61153;DHT22;47030;50.732;4.286;2022-09-21T17:04:36;15.30;85.90
61153;DHT22;47030;50.732;4.286;2022-09-21T17:07:03;15.30;86.80
61153;DHT22;47030;50.732;4.286;2022-09-21T17:09:34;15.10;87.90
61153;DHT22;47030;50.732;4.286;2022-09-21T17:12:04;15.00;89.20
61153;DHT22;47030;50.732;4.286;2022-09-21T17:14:31;14.90;90.10
61153;DHT22;47030;50.732;4.286;2022-09-21T17:17:01;14.70;90.80
61153;DHT22;47030;50.732;4.286;2022-09-21T17:19:29;14.70;91.60
61153;DHT22;47030;50.732;4.286;2022-09-21T17:21:55;14.60;92.20
61153;DHT22;47030;50.732;4.286;2022-09-21T17:24:21;14.40;92.80
61153;DHT22;47030;50.732;4.286;2022-09-21T17:26:47;14.30;93.30
61153;DHT22;47030;50.732;4.286;2022-09-21T17:29:23;14.20;93.60
61153;DHT22;47030;50.732;4.286;2022-09-21T17:31:55;14.10;94.00
61153;DHT22;47030;50.732;4.286;2022-09-21T17:34:23;14.00;94.60
61153;DHT22;47030;50.732;4.286;2022-09-21T17:36:50;13.90;95.00
61153;DHT22;47030;50.732;4.286;2022-09-21T17:39:17;13.80;95.40
61153;DHT22;47030;50.732;4.286;2022-09-21T17:41:45;13.60;95.90
61153;DHT22;47030;50.732;4.286;2022-09-21T17:44:17;13.50;96.40
61153;DHT22;47030;50.732;4.286;2022-09-21T17:49:39;13.30;97.30
61153;DHT22;47030;50.732;4.286;2022-09-21T17:52:13;13.10;97.60
61153;DHT22;47030;50.732;4.286;2022-09-21T17:54:58;13.10;97.90
61153;DHT22;47030;50.732;4.286;2022-09-21T18:03:21;12.80;99.10
61153;DHT22;47030;50.732;4.286;2022-09-21T18:05:49;12.70;99.30
61153;DHT22;47030;50.732;4.286;2022-09-21T18:08:16;12.60;99.40
61153;DHT22;47030;50.732;4.286;2022-09-21T18:10:50;12.50;99.70
61153;DHT22;47030;50.732;4.286;2022-09-21T18:18:45;12.20;99.90
61153;DHT22;47030;50.732;4.286;2022-09-21T18:21:21;12.20;99.90
61153;DHT22;47030;50.732;4.286;2022-09-21T18:26:32;12.00;99.90
61153;DHT22;47030;50.732;4.286;2022-09-21T18:28:59;12.00;99.90
61153;DHT22;47030;50.732;4.286;2022-09-21T18:32:02;11.90;99.90
61153;DHT22;47030;50.732;4.286;2022-09-21T18:34:53;11.80;99.90
61153;DHT22;47030;50.732;4.286;2022-09-21T18:52:41;11.40;99.90
61153;DHT22;47030;50.732;4.286;2022-09-21T18:55:21;11.40;99.90
61153;DHT22;47030;50.732;4.286;2022-09-21T18:57:51;11.30;99.90
61153;DHT22;47030;50.732;4.286;2022-09-21T19:00:18;11.20;99.90
61153;DHT22;47030;50.732;4.286;2022-09-21T19:02:45;11.20;99.90
61153;DHT22;47030;50.732;4.286;2022-09-21T19:05:12;11.00;99.90
61153;DHT22;47030;50.732;4.286;2022-09-21T19:07:44;11.00;99.90
61153;DHT22;47030;50.732;4.286;2022-09-21T19:18:34;10.80;99.90
61153;DHT22;47030;50.732;4.286;2022-09-21T19:21:20;10.80;99.90
61153;DHT22;47030;50.732;4.286;2022-09-21T19:23:54;10.70;99.90
61153;DHT22;47030;50.732;4.286;2022-09-21T19:29:52;10.60;99.90
61153;DHT22;47030;50.732;4.286;2022-09-21T19:34:55;10.50;99.90
61153;DHT22;47030;50.732;4.286;2022-09-21T19:37:23;10.40;99.90
61153;DHT22;47030;50.732;4.286;2022-09-21T19:39:49;10.30;99.90
61153;DHT22;47030;50.732;4.286;2022-09-21T19:42:35;10.30;99.90